sensor_id;sensor_type;location;lat;lon;timestamp;temperature;humidity
27314;DHT22;14800;48.174;9.798;2023-05-29T00:01:33;13.80;62.80
27314;DHT22;14800;48.174;9.798;2023-05-29T00:04:01;13.70;62.90
27314;DHT22;14800;48.174;9.798;2023-05-29T00:06:27;13.60;63.00
27314;DHT22;14800;48.174;9.798;2023-05-29T00:08:52;13.60;63.30
27314;DHT22;14800;48.174;9.798;2023-05-29T00:11:18;13.50;63.50
27314;DHT22;14800;48.174;9.798;2023-05-29T00:13:44;13.50;63.60
27314;DHT22;14800;48.174;9.798;2023-05-29T00:16:09;13.40;63.80
27314;DHT22;14800;48.174;9.798;2023-05-29T00:18:35;13.40;64.00
27314;DHT22;14800;48.174;9.798;2023-05-29T00:21:01;13.30;64.00
27314;DHT22;14800;48.174;9.798;2023-05-29T00:23:27;13.30;64.00
27314;DHT22;14800;48.174;9.798;2023-05-29T00:25:53;13.20;64.00
27314;DHT22;14800;48.174;9.798;2023-05-29T00:28:18;13.20;64.10
27314;DHT22;14800;48.174;9.798;2023-05-29T00:30:44;13.20;64.40
27314;DHT22;14800;48.174;9.798;2023-05-29T00:33:09;13.20;64.50
27314;DHT22;14800;48.174;9.798;2023-05-29T00:35:35;13.10;64.50
27314;DHT22;14800;48.174;9.798;2023-05-29T00:38:01;13.10;64.60
27314;DHT22;14800;48.174;9.798;2023-05-29T00:40:26;13.00;64.80
27314;DHT22;14800;48.174;9.798;2023-05-29T00:42:52;13.00;64.90
27314;DHT22;14800;48.174;9.798;2023-05-29T00:45:18;13.00;65.00
27314;DHT22;14800;48.174;9.798;2023-05-29T00:47:43;12.90;65.10
27314;DHT22;14800;48.174;9.798;2023-05-29T00:50:11;12.70;65.00
27314;DHT22;14800;48.174;9.798;2023-05-29T00:52:40;12.80;65.30
27314;DHT22;14800;48.174;9.798;2023-05-29T00:55:06;12.80;65.50
27314;DHT22;14800;48.174;9.798;2023-05-29T00:57:33;12.70;65.80
27314;DHT22;14800;48.174;9.798;2023-05-29T01:00:00;12.70;65.90
27314;DHT22;14800;48.174;9.798;2023-05-29T01:02:29;12.70;66.00
27314;DHT22;14800;48.174;9.798;2023-05-29T01:04:56;12.70;66.20
27314;DHT22;14800;48.174;9.798;2023-05-29T01:07:22;12.70;66.60
27314;DHT22;14800;48.174;9.798;2023-05-29T01:09:47;12.70;66.50
27314;DHT22;14800;48.174;9.798;2023-05-29T01:20:50;12.60;67.30
27314;DHT22;14800;48.174;9.798;2023-05-29T01:28:40;12.50;67.60
27314;DHT22;14800;48.174;9.798;2023-05-29T01:31:07;12.40;67.10
27314;DHT22;14800;48.174;9.798;2023-05-29T01:33:33;12.40;66.80
27314;DHT22;14800;48.174;9.798;2023-05-29T01:35:58;12.30;66.90
27314;DHT22;14800;48.174;9.798;2023-05-29T01:38:24;12.30;67.20
27314;DHT22;14800;48.174;9.798;2023-05-29T01:40:50;12.20;67.30
27314;DHT22;14800;48.174;9.798;2023-05-29T01:43:16;12.20;67.60
27314;DHT22;14800;48.174;9.798;2023-05-29T01:45:42;12.20;67.80
27314;DHT22;14800;48.174;9.798;2023-05-29T01:48:08;12.20;67.80
27314;DHT22;14800;48.174;9.798;2023-05-29T01:50:34;12.20;68.00
27314;DHT22;14800;48.174;9.798;2023-05-29T01:53:00;12.20;68.10
27314;DHT22;14800;48.174;9.798;2023-05-29T01:55:26;12.20;68.00
27314;DHT22;14800;48.174;9.798;2023-05-29T01:57:52;12.20;67.90
27314;DHT22;14800;48.174;9.798;2023-05-29T02:00:19;12.20;67.80
27314;DHT22;14800;48.174;9.798;2023-05-29T02:02:44;12.20;68.00
27314;DHT22;14800;48.174;9.798;2023-05-29T02:05:10;12.10;68.00
27314;DHT22;14800;48.174;9.798;2023-05-29T02:07:36;12.10;68.10
27314;DHT22;14800;48.174;9.798;2023-05-29T02:10:03;12.10;68.20
27314;DHT22;14800;48.174;9.798;2023-05-29T02:12:29;12.00;68.20
27314;DHT22;14800;48.174;9.798;2023-05-29T02:14:54;12.00;68.30
27314;DHT22;14800;48.174;9.798;2023-05-29T02:17:20;12.00;68.10
27314;DHT22;14800;48.174;9.798;2023-05-29T02:19:46;12.00;68.10
27314;DHT22;14800;48.174;9.798;2023-05-29T02:22:12;12.00;68.20
27314;DHT22;14800;48.174;9.798;2023-05-29T02:24:37;12.00;68.60
27314;DHT22;14800;48.174;9.798;2023-05-29T02:27:03;11.90;68.50
27314;DHT22;14800;48.174;9.798;2023-05-29T02:29:29;11.90;68.60
27314;DHT22;14800;48.174;9.798;2023-05-29T02:31:55;11.80;68.70
27314;DHT22;14800;48.174;9.798;2023-05-29T02:34:20;11.80;68.90
27314;DHT22;14800;48.174;9.798;2023-05-29T02:36:50;11.80;69.20
27314;DHT22;14800;48.174;9.798;2023-05-29T02:39:17;11.70;69.30
27314;DHT22;14800;48.174;9.798;2023-05-29T02:41:43;11.70;69.40
27314;DHT22;14800;48.174;9.798;2023-05-29T02:44:08;11.70;69.50
27314;DHT22;14800;48.174;9.798;2023-05-29T02:46:34;11.60;69.50
27314;DHT22;14800;48.174;9.798;2023-05-29T02:48:59;11.60;69.50
27314;DHT22;14800;48.174;9.798;2023-05-29T02:51:25;11.60;69.70
27314;DHT22;14800;48.174;9.798;2023-05-29T02:53:51;11.50;69.80
27314;DHT22;14800;48.174;9.798;2023-05-29T02:56:16;11.50;69.90
27314;DHT22;14800;48.174;9.798;2023-05-29T02:58:42;11.50;70.30
27314;DHT22;14800;48.174;9.798;2023-05-29T03:01:08;11.50;70.40
27314;DHT22;14800;48.174;9.798;2023-05-29T03:03:34;11.40;70.30
27314;DHT22;14800;48.174;9.798;2023-05-29T03:05:59;11.40;70.50
27314;DHT22;14800;48.174;9.798;2023-05-29T03:08:26;11.30;70.50
27314;DHT22;14800;48.174;9.798;2023-05-29T03:10:53;11.30;70.70
27314;DHT22;14800;48.174;9.798;2023-05-29T03:13:19;11.30;71.00
27314;DHT22;14800;48.174;9.798;2023-05-29T03:15:45;11.30;71.10
27314;DHT22;14800;48.174;9.798;2023-05-29T03:18:11;11.30;71.10
27314;DHT22;14800;48.174;9.798;2023-05-29T03:20:37;11.30;71.00
27314;DHT22;14800;48.174;9.798;2023-05-29T03:23:02;11.30;70.90
27314;DHT22;14800;48.174;9.798;2023-05-29T03:25:28;11.30;70.90
27314;DHT22;14800;48.174;9.798;2023-05-29T03:27:54;11.30;70.90
27314;DHT22;14800;48.174;9.798;2023-05-29T03:30:20;11.20;71.00
27314;DHT22;14800;48.174;9.798;2023-05-29T03:32:46;11.20;71.10
27314;DHT22;14800;48.174;9.798;2023-05-29T03:35:12;11.10;71.10
27314;DHT22;14800;48.174;9.798;2023-05-29T03:37:37;11.10;71.20
27314;DHT22;14800;48.174;9.798;2023-05-29T03:40:03;11.10;71.30
27314;DHT22;14800;48.174;9.798;2023-05-29T03:42:30;11.10;71.40
27314;DHT22;14800;48.174;9.798;2023-05-29T03:44:56;11.00;71.50
27314;DHT22;14800;48.174;9.798;2023-05-29T03:47:22;11.00;71.60
27314;DHT22;14800;48.174;9.798;2023-05-29T03:49:48;11.00;71.80
27314;DHT22;14800;48.174;9.798;2023-05-29T03:52:13;11.00;71.90
27314;DHT22;14800;48.174;9.798;2023-05-29T03:54:39;11.00;72.00
27314;DHT22;14800;48.174;9.798;2023-05-29T03:57:05;10.90;72.00
27314;DHT22;14800;48.174;9.798;2023-05-29T03:59:32;10.90;73.00
27314;DHT22;14800;48.174;9.798;2023-05-29T04:01:58;10.90;72.20
27314;DHT22;14800;48.174;9.798;2023-05-29T04:04:25;10.90;72.50
27314;DHT22;14800;48.174;9.798;2023-05-29T04:06:50;10.90;72.90
27314;DHT22;14800;48.174;9.798;2023-05-29T04:09:16;10.90;72.90
27314;DHT22;14800;48.174;9.798;2023-05-29T04:11:42;10.90;73.00
27314;DHT22;14800;48.174;9.798;2023-05-29T04:14:10;10.90;72.90
27314;DHT22;14800;48.174;9.798;2023-05-29T04:16:35;11.00;72.90
27314;DHT22;14800;48.174;9.798;2023-05-29T04:19:01;11.00;72.90
27314;DHT22;14800;48.174;9.798;2023-05-29T04:21:26;11.00;72.90
27314;DHT22;14800;48.174;9.798;2023-05-29T04:23:52;11.00;73.00
27314;DHT22;14800;48.174;9.798;2023-05-29T04:26:18;11.00;73.00
27314;DHT22;14800;48.174;9.798;2023-05-29T04:28:46;11.10;73.10
27314;DHT22;14800;48.174;9.798;2023-05-29T04:31:11;11.10;73.10
27314;DHT22;14800;48.174;9.798;2023-05-29T04:33:40;11.10;73.10
27314;DHT22;14800;48.174;9.798;2023-05-29T04:36:05;11.10;73.20
27314;DHT22;14800;48.174;9.798;2023-05-29T04:38:33;11.20;73.30
27314;DHT22;14800;48.174;9.798;2023-05-29T04:40:59;11.20;73.40
27314;DHT22;14800;48.174;9.798;2023-05-29T04:43:24;11.30;73.40
27314;DHT22;14800;48.174;9.798;2023-05-29T04:45:52;11.30;73.60
27314;DHT22;14800;48.174;9.798;2023-05-29T04:48:18;11.30;73.70
27314;DHT22;14800;48.174;9.798;2023-05-29T04:50:44;11.40;73.70
27314;DHT22;14800;48.174;9.798;2023-05-29T04:53:10;11.40;73.80
27314;DHT22;14800;48.174;9.798;2023-05-29T04:55:36;11.50;73.90
27314;DHT22;14800;48.174;9.798;2023-05-29T04:58:02;11.50;74.00
27314;DHT22;14800;48.174;9.798;2023-05-29T05:00:27;11.60;74.10
27314;DHT22;14800;48.174;9.798;2023-05-29T05:02:53;11.60;74.10
27314;DHT22;14800;48.174;9.798;2023-05-29T05:05:19;11.70;74.30
27314;DHT22;14800;48.174;9.798;2023-05-29T05:07:45;11.80;74.40
27314;DHT22;14800;48.174;9.798;2023-05-29T05:10:11;11.90;74.40
27314;DHT22;14800;48.174;9.798;2023-05-29T05:12:37;11.90;74.60
27314;DHT22;14800;48.174;9.798;2023-05-29T05:15:03;12.00;74.60
27314;DHT22;14800;48.174;9.798;2023-05-29T05:17:28;12.10;74.50
27314;DHT22;14800;48.174;9.798;2023-05-29T05:19:54;12.20;74.70
27314;DHT22;14800;48.174;9.798;2023-05-29T05:22:20;12.30;74.70
27314;DHT22;14800;48.174;9.798;2023-05-29T05:24:45;12.50;74.50
27314;DHT22;14800;48.174;9.798;2023-05-29T05:27:11;12.50;74.40
27314;DHT22;14800;48.174;9.798;2023-05-29T05:29:37;12.70;74.50
27314;DHT22;14800;48.174;9.798;2023-05-29T05:32:02;12.80;74.40
27314;DHT22;14800;48.174;9.798;2023-05-29T05:34:28;12.90;74.20
27314;DHT22;14800;48.174;9.798;2023-05-29T05:36:53;13.10;74.00
27314;DHT22;14800;48.174;9.798;2023-05-29T05:39:19;13.20;73.40
27314;DHT22;14800;48.174;9.798;2023-05-29T05:41:45;13.30;73.00
27314;DHT22;14800;48.174;9.798;2023-05-29T05:44:10;13.50;73.00
27314;DHT22;14800;48.174;9.798;2023-05-29T05:46:36;13.60;72.70
27314;DHT22;14800;48.174;9.798;2023-05-29T05:49:01;13.70;72.50
27314;DHT22;14800;48.174;9.798;2023-05-29T05:51:27;13.80;71.90
27314;DHT22;14800;48.174;9.798;2023-05-29T05:53:53;14.00;71.60
27314;DHT22;14800;48.174;9.798;2023-05-29T05:56:19;14.10;71.30
27314;DHT22;14800;48.174;9.798;2023-05-29T05:58:44;14.20;70.90
27314;DHT22;14800;48.174;9.798;2023-05-29T06:01:10;14.30;70.60
27314;DHT22;14800;48.174;9.798;2023-05-29T06:03:36;14.40;70.50
27314;DHT22;14800;48.174;9.798;2023-05-29T06:06:03;14.60;70.00
27314;DHT22;14800;48.174;9.798;2023-05-29T06:08:29;14.70;69.90
27314;DHT22;14800;48.174;9.798;2023-05-29T06:10:55;14.80;69.90
27314;DHT22;14800;48.174;9.798;2023-05-29T06:13:21;14.90;69.70
27314;DHT22;14800;48.174;9.798;2023-05-29T06:15:47;15.00;69.50
27314;DHT22;14800;48.174;9.798;2023-05-29T06:18:12;15.10;69.30
27314;DHT22;14800;48.174;9.798;2023-05-29T06:20:38;15.20;69.30
27314;DHT22;14800;48.174;9.798;2023-05-29T06:23:03;15.30;69.10
27314;DHT22;14800;48.174;9.798;2023-05-29T06:25:30;15.40;69.80
27314;DHT22;14800;48.174;9.798;2023-05-29T06:28:02;15.50;68.60
27314;DHT22;14800;48.174;9.798;2023-05-29T06:30:28;15.60;68.60
27314;DHT22;14800;48.174;9.798;2023-05-29T06:32:54;15.70;68.40
27314;DHT22;14800;48.174;9.798;2023-05-29T06:35:20;15.80;68.30
27314;DHT22;14800;48.174;9.798;2023-05-29T06:37:46;15.90;67.80
27314;DHT22;14800;48.174;9.798;2023-05-29T06:40:13;16.00;67.80
27314;DHT22;14800;48.174;9.798;2023-05-29T06:42:39;16.10;67.80
27314;DHT22;14800;48.174;9.798;2023-05-29T06:45:05;16.20;67.60
27314;DHT22;14800;48.174;9.798;2023-05-29T06:47:31;16.30;67.40
27314;DHT22;14800;48.174;9.798;2023-05-29T06:49:56;16.40;67.30
27314;DHT22;14800;48.174;9.798;2023-05-29T06:52:22;16.40;67.30
27314;DHT22;14800;48.174;9.798;2023-05-29T06:54:48;16.70;67.50
27314;DHT22;14800;48.174;9.798;2023-05-29T06:57:13;16.60;67.20
27314;DHT22;14800;48.174;9.798;2023-05-29T06:59:39;16.70;66.90
27314;DHT22;14800;48.174;9.798;2023-05-29T07:02:05;16.80;66.90
27314;DHT22;14800;48.174;9.798;2023-05-29T07:04:31;16.90;66.70
27314;DHT22;14800;48.174;9.798;2023-05-29T07:06:56;16.90;66.40
27314;DHT22;14800;48.174;9.798;2023-05-29T07:09:22;17.00;66.00
27314;DHT22;14800;48.174;9.798;2023-05-29T07:11:47;17.10;66.00
27314;DHT22;14800;48.174;9.798;2023-05-29T07:14:13;17.20;65.90
27314;DHT22;14800;48.174;9.798;2023-05-29T07:16:39;17.20;65.70
27314;DHT22;14800;48.174;9.798;2023-05-29T07:19:05;17.30;65.30
27314;DHT22;14800;48.174;9.798;2023-05-29T07:21:30;17.50;65.30
27314;DHT22;14800;48.174;9.798;2023-05-29T07:23:56;17.60;64.80
27314;DHT22;14800;48.174;9.798;2023-05-29T07:26:22;17.60;64.50
27314;DHT22;14800;48.174;9.798;2023-05-29T07:28:49;17.80;64.20
27314;DHT22;14800;48.174;9.798;2023-05-29T07:31:14;17.90;64.10
27314;DHT22;14800;48.174;9.798;2023-05-29T07:33:40;18.00;64.00
27314;DHT22;14800;48.174;9.798;2023-05-29T07:36:07;18.20;63.90
27314;DHT22;14800;48.174;9.798;2023-05-29T07:38:33;18.30;63.50
27314;DHT22;14800;48.174;9.798;2023-05-29T07:40:58;18.40;63.40
27314;DHT22;14800;48.174;9.798;2023-05-29T07:43:24;18.60;63.20
27314;DHT22;14800;48.174;9.798;2023-05-29T07:45:50;18.70;62.40
27314;DHT22;14800;48.174;9.798;2023-05-29T07:48:15;18.70;62.10
27314;DHT22;14800;48.174;9.798;2023-05-29T07:50:41;18.90;62.40
27314;DHT22;14800;48.174;9.798;2023-05-29T07:53:06;19.00;62.10
27314;DHT22;14800;48.174;9.798;2023-05-29T07:55:33;19.10;61.80
27314;DHT22;14800;48.174;9.798;2023-05-29T07:57:59;19.20;61.30
27314;DHT22;14800;48.174;9.798;2023-05-29T08:00:25;19.30;61.30
27314;DHT22;14800;48.174;9.798;2023-05-29T08:02:51;19.30;60.30
27314;DHT22;14800;48.174;9.798;2023-05-29T08:05:17;19.50;60.10
27314;DHT22;14800;48.174;9.798;2023-05-29T08:07:43;19.60;59.70
27314;DHT22;14800;48.174;9.798;2023-05-29T08:10:09;19.60;60.00
27314;DHT22;14800;48.174;9.798;2023-05-29T08:12:35;19.80;59.70
27314;DHT22;14800;48.174;9.798;2023-05-29T08:15:02;19.90;59.60
27314;DHT22;14800;48.174;9.798;2023-05-29T08:17:27;20.00;59.40
27314;DHT22;14800;48.174;9.798;2023-05-29T08:19:53;20.10;59.10
27314;DHT22;14800;48.174;9.798;2023-05-29T08:22:19;20.20;59.00
27314;DHT22;14800;48.174;9.798;2023-05-29T08:24:44;20.30;58.50
27314;DHT22;14800;48.174;9.798;2023-05-29T08:27:10;20.40;58.20
27314;DHT22;14800;48.174;9.798;2023-05-29T08:29:35;20.50;58.20
27314;DHT22;14800;48.174;9.798;2023-05-29T08:32:02;20.60;58.20
27314;DHT22;14800;48.174;9.798;2023-05-29T08:34:27;20.70;57.70
27314;DHT22;14800;48.174;9.798;2023-05-29T08:36:53;20.80;57.70
27314;DHT22;14800;48.174;9.798;2023-05-29T08:39:20;20.80;57.90
27314;DHT22;14800;48.174;9.798;2023-05-29T08:42:06;20.90;57.90
27314;DHT22;14800;48.174;9.798;2023-05-29T08:44:33;21.10;57.20
27314;DHT22;14800;48.174;9.798;2023-05-29T08:47:02;21.10;57.60
27314;DHT22;14800;48.174;9.798;2023-05-29T08:49:41;21.20;56.80
27314;DHT22;14800;48.174;9.798;2023-05-29T08:52:16;21.30;56.70
27314;DHT22;14800;48.174;9.798;2023-05-29T08:54:42;21.40;56.50
27314;DHT22;14800;48.174;9.798;2023-05-29T08:57:09;21.40;56.70
27314;DHT22;14800;48.174;9.798;2023-05-29T08:59:37;21.50;56.50
27314;DHT22;14800;48.174;9.798;2023-05-29T09:02:04;21.60;56.60
27314;DHT22;14800;48.174;9.798;2023-05-29T09:04:31;21.80;56.70
27314;DHT22;14800;48.174;9.798;2023-05-29T09:06:57;21.90;55.70
27314;DHT22;14800;48.174;9.798;2023-05-29T09:09:24;22.00;54.70
27314;DHT22;14800;48.174;9.798;2023-05-29T09:11:52;22.10;54.90
27314;DHT22;14800;48.174;9.798;2023-05-29T09:17:00;22.40;53.50
27314;DHT22;14800;48.174;9.798;2023-05-29T09:19:26;22.50;53.70
27314;DHT22;14800;48.174;9.798;2023-05-29T09:21:52;22.60;52.90
27314;DHT22;14800;48.174;9.798;2023-05-29T09:24:26;22.70;52.70
27314;DHT22;14800;48.174;9.798;2023-05-29T09:26:52;22.80;52.70
27314;DHT22;14800;48.174;9.798;2023-05-29T09:29:19;23.00;52.70
27314;DHT22;14800;48.174;9.798;2023-05-29T09:31:48;23.10;52.70
27314;DHT22;14800;48.174;9.798;2023-05-29T09:34:14;23.20;52.20
27314;DHT22;14800;48.174;9.798;2023-05-29T09:36:40;23.40;52.50
27314;DHT22;14800;48.174;9.798;2023-05-29T09:39:06;23.50;51.70
27314;DHT22;14800;48.174;9.798;2023-05-29T09:41:44;23.60;50.90
27314;DHT22;14800;48.174;9.798;2023-05-29T09:44:16;23.70;50.00
27314;DHT22;14800;48.174;9.798;2023-05-29T09:46:42;23.80;49.30
27314;DHT22;14800;48.174;9.798;2023-05-29T09:49:14;23.90;48.90
27314;DHT22;14800;48.174;9.798;2023-05-29T09:51:40;23.90;49.10
27314;DHT22;14800;48.174;9.798;2023-05-29T09:54:16;24.00;48.90
27314;DHT22;14800;48.174;9.798;2023-05-29T09:56:42;24.10;47.70
27314;DHT22;14800;48.174;9.798;2023-05-29T09:59:13;24.20;47.50
27314;DHT22;14800;48.174;9.798;2023-05-29T10:01:41;24.30;47.40
27314;DHT22;14800;48.174;9.798;2023-05-29T10:04:10;24.30;46.60
27314;DHT22;14800;48.174;9.798;2023-05-29T10:06:45;24.40;46.80
27314;DHT22;14800;48.174;9.798;2023-05-29T10:09:15;24.50;46.50
27314;DHT22;14800;48.174;9.798;2023-05-29T10:11:43;24.50;46.20
27314;DHT22;14800;48.174;9.798;2023-05-29T10:14:13;24.50;45.10
27314;DHT22;14800;48.174;9.798;2023-05-29T10:16:42;24.60;45.60
27314;DHT22;14800;48.174;9.798;2023-05-29T10:19:12;24.60;46.20
27314;DHT22;14800;48.174;9.798;2023-05-29T10:21:40;24.70;44.90
27314;DHT22;14800;48.174;9.798;2023-05-29T10:24:07;24.70;45.30
27314;DHT22;14800;48.174;9.798;2023-05-29T10:26:39;24.80;44.30
27314;DHT22;14800;48.174;9.798;2023-05-29T10:40:09;25.00;43.40
27314;DHT22;14800;48.174;9.798;2023-05-29T10:42:49;25.10;43.70
27314;DHT22;14800;48.174;9.798;2023-05-29T10:47:56;25.10;39.50
27314;DHT22;14800;48.174;9.798;2023-05-29T10:53:10;25.10;41.70
27314;DHT22;14800;48.174;9.798;2023-05-29T10:55:40;25.00;42.60
27314;DHT22;14800;48.174;9.798;2023-05-29T10:58:20;25.00;42.10
27314;DHT22;14800;48.174;9.798;2023-05-29T11:00:47;25.00;41.00
27314;DHT22;14800;48.174;9.798;2023-05-29T11:03:21;25.00;42.00
27314;DHT22;14800;48.174;9.798;2023-05-29T11:05:57;24.90;41.80
27314;DHT22;14800;48.174;9.798;2023-05-29T11:08:45;25.00;42.20
27314;DHT22;14800;48.174;9.798;2023-05-29T11:11:30;25.00;42.40
27314;DHT22;14800;48.174;9.798;2023-05-29T11:14:06;25.10;40.80
27314;DHT22;14800;48.174;9.798;2023-05-29T11:19:04;25.10;41.20
27314;DHT22;14800;48.174;9.798;2023-05-29T11:21:44;25.10;41.30
27314;DHT22;14800;48.174;9.798;2023-05-29T11:26:45;25.10;39.70
27314;DHT22;14800;48.174;9.798;2023-05-29T11:29:11;25.00;41.10
27314;DHT22;14800;48.174;9.798;2023-05-29T11:31:39;25.00;40.40
27314;DHT22;14800;48.174;9.798;2023-05-29T11:34:09;25.10;40.30
27314;DHT22;14800;48.174;9.798;2023-05-29T11:36:35;25.00;39.70
27314;DHT22;14800;48.174;9.798;2023-05-29T11:39:02;25.10;40.80
27314;DHT22;14800;48.174;9.798;2023-05-29T11:41:29;25.10;40.40
27314;DHT22;14800;48.174;9.798;2023-05-29T11:44:01;25.10;40.00
27314;DHT22;14800;48.174;9.798;2023-05-29T11:46:28;25.10;38.60
27314;DHT22;14800;48.174;9.798;2023-05-29T11:48:56;25.10;39.30
27314;DHT22;14800;48.174;9.798;2023-05-29T11:51:22;25.10;39.10
27314;DHT22;14800;48.174;9.798;2023-05-29T11:53:48;25.10;39.30
27314;DHT22;14800;48.174;9.798;2023-05-29T11:56:14;25.20;39.60
27314;DHT22;14800;48.174;9.798;2023-05-29T11:58:40;25.20;39.30
27314;DHT22;14800;48.174;9.798;2023-05-29T12:01:07;25.10;39.20
27314;DHT22;14800;48.174;9.798;2023-05-29T12:03:52;25.20;39.20
27314;DHT22;14800;48.174;9.798;2023-05-29T12:06:34;25.20;39.00
27314;DHT22;14800;48.174;9.798;2023-05-29T12:09:01;25.30;38.40
27314;DHT22;14800;48.174;9.798;2023-05-29T12:11:28;25.30;38.80
27314;DHT22;14800;48.174;9.798;2023-05-29T12:14:01;25.30;38.40
27314;DHT22;14800;48.174;9.798;2023-05-29T12:16:28;25.40;38.30
27314;DHT22;14800;48.174;9.798;2023-05-29T12:18:55;25.40;38.80
27314;DHT22;14800;48.174;9.798;2023-05-29T12:21:21;25.50;38.50
27314;DHT22;14800;48.174;9.798;2023-05-29T12:23:48;25.50;38.20
27314;DHT22;14800;48.174;9.798;2023-05-29T12:26:13;25.50;38.20
27314;DHT22;14800;48.174;9.798;2023-05-29T12:28:44;25.50;38.50
27314;DHT22;14800;48.174;9.798;2023-05-29T12:31:10;25.50;38.00
27314;DHT22;14800;48.174;9.798;2023-05-29T12:33:42;25.60;38.10
27314;DHT22;14800;48.174;9.798;2023-05-29T12:36:09;25.60;37.60
27314;DHT22;14800;48.174;9.798;2023-05-29T12:38:49;25.60;38.20
27314;DHT22;14800;48.174;9.798;2023-05-29T12:41:28;25.60;37.00
27314;DHT22;14800;48.174;9.798;2023-05-29T12:43:58;25.60;37.30
27314;DHT22;14800;48.174;9.798;2023-05-29T12:46:34;25.60;37.40
27314;DHT22;14800;48.174;9.798;2023-05-29T12:49:17;25.70;37.10
27314;DHT22;14800;48.174;9.798;2023-05-29T12:51:47;25.70;36.60
27314;DHT22;14800;48.174;9.798;2023-05-29T12:54:14;25.70;37.70
27314;DHT22;14800;48.174;9.798;2023-05-29T12:56:40;25.70;37.70
27314;DHT22;14800;48.174;9.798;2023-05-29T12:59:09;25.70;38.00
27314;DHT22;14800;48.174;9.798;2023-05-29T13:01:37;25.70;37.30
27314;DHT22;14800;48.174;9.798;2023-05-29T13:04:06;25.70;37.30
27314;DHT22;14800;48.174;9.798;2023-05-29T13:06:35;25.80;36.20
27314;DHT22;14800;48.174;9.798;2023-05-29T13:09:02;25.70;36.20
27314;DHT22;14800;48.174;9.798;2023-05-29T13:11:28;25.70;36.20
27314;DHT22;14800;48.174;9.798;2023-05-29T13:13:53;25.70;37.10
27314;DHT22;14800;48.174;9.798;2023-05-29T13:16:19;25.60;37.50
27314;DHT22;14800;48.174;9.798;2023-05-29T13:18:44;25.60;36.50
27314;DHT22;14800;48.174;9.798;2023-05-29T13:21:10;25.60;36.80
27314;DHT22;14800;48.174;9.798;2023-05-29T13:23:36;25.60;37.10
27314;DHT22;14800;48.174;9.798;2023-05-29T13:26:03;25.60;36.50
27314;DHT22;14800;48.174;9.798;2023-05-29T13:28:29;25.60;37.10
27314;DHT22;14800;48.174;9.798;2023-05-29T13:30:54;25.70;37.30
27314;DHT22;14800;48.174;9.798;2023-05-29T13:33:20;25.70;36.70
27314;DHT22;14800;48.174;9.798;2023-05-29T13:35:45;25.70;35.80
27314;DHT22;14800;48.174;9.798;2023-05-29T13:38:11;25.80;36.90
27314;DHT22;14800;48.174;9.798;2023-05-29T13:40:37;25.80;36.70
27314;DHT22;14800;48.174;9.798;2023-05-29T13:43:02;25.80;37.40
27314;DHT22;14800;48.174;9.798;2023-05-29T13:45:28;25.90;36.60
27314;DHT22;14800;48.174;9.798;2023-05-29T13:47:54;25.90;36.60
27314;DHT22;14800;48.174;9.798;2023-05-29T13:50:20;25.90;36.60
27314;DHT22;14800;48.174;9.798;2023-05-29T13:52:48;25.90;36.30
27314;DHT22;14800;48.174;9.798;2023-05-29T13:55:14;25.90;36.10
27314;DHT22;14800;48.174;9.798;2023-05-29T13:57:40;25.90;36.40
27314;DHT22;14800;48.174;9.798;2023-05-29T14:00:07;26.00;36.30
27314;DHT22;14800;48.174;9.798;2023-05-29T14:02:33;25.90;36.20
27314;DHT22;14800;48.174;9.798;2023-05-29T14:04:58;26.00;36.30
27314;DHT22;14800;48.174;9.798;2023-05-29T14:07:24;26.00;37.00
27314;DHT22;14800;48.174;9.798;2023-05-29T14:09:50;26.00;37.00
27314;DHT22;14800;48.174;9.798;2023-05-29T14:12:16;26.10;36.80
27314;DHT22;14800;48.174;9.798;2023-05-29T14:14:42;26.10;36.20
27314;DHT22;14800;48.174;9.798;2023-05-29T14:17:08;26.20;35.80
27314;DHT22;14800;48.174;9.798;2023-05-29T14:19:34;26.20;36.40
27314;DHT22;14800;48.174;9.798;2023-05-29T14:22:00;26.20;36.60
27314;DHT22;14800;48.174;9.798;2023-05-29T14:24:26;26.20;36.50
27314;DHT22;14800;48.174;9.798;2023-05-29T14:26:52;26.20;36.40
27314;DHT22;14800;48.174;9.798;2023-05-29T14:29:17;26.20;36.60
27314;DHT22;14800;48.174;9.798;2023-05-29T14:31:43;26.20;37.40
27314;DHT22;14800;48.174;9.798;2023-05-29T14:34:09;26.30;37.00
27314;DHT22;14800;48.174;9.798;2023-05-29T14:36:35;26.30;37.10
27314;DHT22;14800;48.174;9.798;2023-05-29T14:39:03;26.40;37.00
27314;DHT22;14800;48.174;9.798;2023-05-29T14:41:28;26.50;37.00
27314;DHT22;14800;48.174;9.798;2023-05-29T14:43:54;26.60;36.50
27314;DHT22;14800;48.174;9.798;2023-05-29T14:46:24;26.60;36.10
27314;DHT22;14800;48.174;9.798;2023-05-29T14:48:50;26.70;35.40
27314;DHT22;14800;48.174;9.798;2023-05-29T14:51:16;26.70;35.80
27314;DHT22;14800;48.174;9.798;2023-05-29T14:53:43;26.70;35.90
27314;DHT22;14800;48.174;9.798;2023-05-29T14:56:08;26.80;35.90
27314;DHT22;14800;48.174;9.798;2023-05-29T14:58:34;26.80;36.50
27314;DHT22;14800;48.174;9.798;2023-05-29T15:01:00;26.90;35.40
27314;DHT22;14800;48.174;9.798;2023-05-29T15:03:25;26.90;35.20
27314;DHT22;14800;48.174;9.798;2023-05-29T15:05:52;27.00;35.50
27314;DHT22;14800;48.174;9.798;2023-05-29T15:08:19;27.00;35.20
27314;DHT22;14800;48.174;9.798;2023-05-29T15:10:44;27.00;34.60
27314;DHT22;14800;48.174;9.798;2023-05-29T15:13:10;27.10;35.00
27314;DHT22;14800;48.174;9.798;2023-05-29T15:15:35;27.10;33.70
27314;DHT22;14800;48.174;9.798;2023-05-29T15:18:01;27.10;34.60
27314;DHT22;14800;48.174;9.798;2023-05-29T15:20:27;27.10;34.00
27314;DHT22;14800;48.174;9.798;2023-05-29T15:22:53;27.10;34.50
27314;DHT22;14800;48.174;9.798;2023-05-29T15:25:20;27.10;34.70
27314;DHT22;14800;48.174;9.798;2023-05-29T15:27:46;27.10;35.00
27314;DHT22;14800;48.174;9.798;2023-05-29T15:30:14;27.20;34.50
27314;DHT22;14800;48.174;9.798;2023-05-29T15:32:41;27.20;33.10
27314;DHT22;14800;48.174;9.798;2023-05-29T15:35:08;27.20;33.50
27314;DHT22;14800;48.174;9.798;2023-05-29T15:37:34;27.20;33.60
27314;DHT22;14800;48.174;9.798;2023-05-29T15:40:01;27.20;33.80
27314;DHT22;14800;48.174;9.798;2023-05-29T15:42:26;27.30;34.10
27314;DHT22;14800;48.174;9.798;2023-05-29T15:44:52;27.30;34.20
27314;DHT22;14800;48.174;9.798;2023-05-29T15:47:17;27.40;34.00
27314;DHT22;14800;48.174;9.798;2023-05-29T15:49:43;27.50;34.00
27314;DHT22;14800;48.174;9.798;2023-05-29T15:52:09;27.50;34.00
27314;DHT22;14800;48.174;9.798;2023-05-29T15:54:34;27.60;33.50
27314;DHT22;14800;48.174;9.798;2023-05-29T15:57:00;27.60;33.80
27314;DHT22;14800;48.174;9.798;2023-05-29T15:59:28;27.60;33.50
27314;DHT22;14800;48.174;9.798;2023-05-29T16:01:53;27.70;33.50
27314;DHT22;14800;48.174;9.798;2023-05-29T16:04:19;27.80;33.90
27314;DHT22;14800;48.174;9.798;2023-05-29T16:06:45;27.90;34.10